sensor_id;sensor_type;location;lat;lon;timestamp;P1;durP1;ratioP1;P2;durP2;ratioP2
79019;SDS011;72857;44.740;37.770;2024-02-21T00:00:09;20.33;;;11.95;;
79019;SDS011;72857;44.740;37.770;2024-02-21T00:01:15;17.98;;;10.52;;
79019;SDS011;72857;44.740;37.770;2024-02-21T00:02:17;26.33;;;12.60;;
79019;SDS011;72857;44.740;37.770;2024-02-21T00:03:19;21.00;;;12.68;;
79019;SDS011;72857;44.740;37.770;2024-02-21T00:04:21;20.70;;;11.68;;
79019;SDS011;72857;44.740;37.770;2024-02-21T00:05:23;21.70;;;12.55;;
79019;SDS011;72857;44.740;37.770;2024-02-21T00:06:24;24.33;;;12.43;;
79019;SDS011;72857;44.740;37.770;2024-02-21T00:07:27;23.33;;;13.50;;
79019;SDS011;72857;44.740;37.770;2024-02-21T00:08:28;21.00;;;12.82;;
79019;SDS011;72857;44.740;37.770;2024-02-21T00:09:30;23.02;;;13.63;;
79019;SDS011;72857;44.740;37.770;2024-02-21T00:10:32;23.02;;;12.90;;
79019;SDS011;72857;44.740;37.770;2024-02-21T00:11:33;21.05;;;11.95;;
79019;SDS011;72857;44.740;37.770;2024-02-21T00:12:35;26.05;;;12.98;;
79019;SDS011;72857;44.740;37.770;2024-02-21T00:13:36;25.52;;;13.07;;
79019;SDS011;72857;44.740;37.770;2024-02-21T00:14:38;26.55;;;13.05;;
79019;SDS011;72857;44.740;37.770;2024-02-21T00:15:40;23.90;;;12.98;;
79019;SDS011;72857;44.740;37.770;2024-02-21T00:16:41;21.88;;;12.98;;
79019;SDS011;72857;44.740;37.770;2024-02-21T00:17:43;23.67;;;12.88;;
79019;SDS011;72857;44.740;37.770;2024-02-21T00:18:45;25.80;;;13.00;;
79019;SDS011;72857;44.740;37.770;2024-02-21T00:19:46;24.33;;;13.80;;
79019;SDS011;72857;44.740;37.770;2024-02-21T00:20:48;22.40;;;12.63;;
79019;SDS011;72857;44.740;37.770;2024-02-21T00:21:49;22.77;;;12.73;;
79019;SDS011;72857;44.740;37.770;2024-02-21T00:22:51;26.50;;;13.57;;
79019;SDS011;72857;44.740;37.770;2024-02-21T00:23:53;26.52;;;12.75;;
79019;SDS011;72857;44.740;37.770;2024-02-21T00:24:54;28.00;;;13.65;;
79019;SDS011;72857;44.740;37.770;2024-02-21T00:25:56;27.10;;;13.75;;
79019;SDS011;72857;44.740;37.770;2024-02-21T00:26:57;28.10;;;13.38;;
79019;SDS011;72857;44.740;37.770;2024-02-21T00:27:59;27.30;;;13.23;;
79019;SDS011;72857;44.740;37.770;2024-02-21T00:29:00;25.02;;;13.00;;
79019;SDS011;72857;44.740;37.770;2024-02-21T00:30:02;26.77;;;12.90;;
79019;SDS011;72857;44.740;37.770;2024-02-21T00:31:04;21.80;;;12.27;;
79019;SDS011;72857;44.740;37.770;2024-02-21T00:32:06;23.15;;;13.10;;
79019;SDS011;72857;44.740;37.770;2024-02-21T00:33:07;23.83;;;13.60;;
79019;SDS011;72857;44.740;37.770;2024-02-21T00:34:09;23.20;;;13.52;;
79019;SDS011;72857;44.740;37.770;2024-02-21T00:35:11;22.85;;;12.95;;
79019;SDS011;72857;44.740;37.770;2024-02-21T00:36:13;25.58;;;13.20;;
79019;SDS011;72857;44.740;37.770;2024-02-21T00:37:15;25.83;;;14.65;;
79019;SDS011;72857;44.740;37.770;2024-02-21T00:38:17;25.40;;;12.73;;
79019;SDS011;72857;44.740;37.770;2024-02-21T00:39:18;23.83;;;12.68;;
79019;SDS011;72857;44.740;37.770;2024-02-21T00:40:20;23.98;;;12.63;;
79019;SDS011;72857;44.740;37.770;2024-02-21T00:41:22;23.67;;;12.23;;
79019;SDS011;72857;44.740;37.770;2024-02-21T00:42:24;26.58;;;13.95;;
79019;SDS011;72857;44.740;37.770;2024-02-21T00:43:26;25.40;;;13.52;;
79019;SDS011;72857;44.740;37.770;2024-02-21T00:44:27;25.55;;;13.93;;
79019;SDS011;72857;44.740;37.770;2024-02-21T00:45:29;28.55;;;14.30;;
79019;SDS011;72857;44.740;37.770;2024-02-21T00:46:30;22.13;;;13.30;;
79019;SDS011;72857;44.740;37.770;2024-02-21T00:47:32;25.10;;;13.70;;
79019;SDS011;72857;44.740;37.770;2024-02-21T00:48:34;25.08;;;13.20;;
79019;SDS011;72857;44.740;37.770;2024-02-21T00:49:36;24.63;;;14.50;;
79019;SDS011;72857;44.740;37.770;2024-02-21T00:50:37;24.45;;;13.93;;
79019;SDS011;72857;44.740;37.770;2024-02-21T00:51:39;26.15;;;14.88;;
79019;SDS011;72857;44.740;37.770;2024-02-21T00:52:40;24.05;;;13.10;;
79019;SDS011;72857;44.740;37.770;2024-02-21T00:53:42;26.50;;;13.90;;
79019;SDS011;72857;44.740;37.770;2024-02-21T00:54:44;29.52;;;13.85;;
79019;SDS011;72857;44.740;37.770;2024-02-21T00:55:45;24.35;;;13.40;;
79019;SDS011;72857;44.740;37.770;2024-02-21T00:56:46;28.02;;;15.02;;
79019;SDS011;72857;44.740;37.770;2024-02-21T00:57:48;25.45;;;13.23;;
79019;SDS011;72857;44.740;37.770;2024-02-21T00:58:49;26.02;;;14.80;;
79019;SDS011;72857;44.740;37.770;2024-02-21T00:59:51;25.30;;;14.68;;
79019;SDS011;72857;44.740;37.770;2024-02-21T01:00:52;30.80;;;14.50;;
79019;SDS011;72857;44.740;37.770;2024-02-21T01:01:54;30.00;;;14.98;;
79019;SDS011;72857;44.740;37.770;2024-02-21T01:02:55;24.20;;;14.38;;
79019;SDS011;72857;44.740;37.770;2024-02-21T01:03:57;31.48;;;16.23;;
79019;SDS011;72857;44.740;37.770;2024-02-21T01:04:58;28.42;;;14.80;;
79019;SDS011;72857;44.740;37.770;2024-02-21T01:06:00;28.08;;;15.25;;
79019;SDS011;72857;44.740;37.770;2024-02-21T01:07:01;36.63;;;16.02;;
79019;SDS011;72857;44.740;37.770;2024-02-21T01:08:03;25.60;;;13.77;;
79019;SDS011;72857;44.740;37.770;2024-02-21T01:09:05;27.30;;;13.43;;
79019;SDS011;72857;44.740;37.770;2024-02-21T01:10:07;27.33;;;14.52;;
79019;SDS011;72857;44.740;37.770;2024-02-21T01:11:08;26.00;;;13.15;;
79019;SDS011;72857;44.740;37.770;2024-02-21T01:12:10;27.27;;;15.48;;
79019;SDS011;72857;44.740;37.770;2024-02-21T01:13:11;27.50;;;13.48;;
79019;SDS011;72857;44.740;37.770;2024-02-21T01:14:13;23.88;;;13.57;;
79019;SDS011;72857;44.740;37.770;2024-02-21T01:15:14;27.40;;;14.32;;
79019;SDS011;72857;44.740;37.770;2024-02-21T01:16:16;25.73;;;14.32;;
79019;SDS011;72857;44.740;37.770;2024-02-21T01:17:17;22.75;;;13.77;;
79019;SDS011;72857;44.740;37.770;2024-02-21T01:18:19;26.95;;;14.10;;
79019;SDS011;72857;44.740;37.770;2024-02-21T01:19:20;21.98;;;12.95;;
79019;SDS011;72857;44.740;37.770;2024-02-21T01:20:21;25.50;;;14.00;;
79019;SDS011;72857;44.740;37.770;2024-02-21T01:21:23;30.05;;;13.98;;
79019;SDS011;72857;44.740;37.770;2024-02-21T01:22:24;27.42;;;14.43;;
79019;SDS011;72857;44.740;37.770;2024-02-21T01:23:26;30.20;;;14.00;;
79019;SDS011;72857;44.740;37.770;2024-02-21T01:24:27;26.58;;;14.23;;
79019;SDS011;72857;44.740;37.770;2024-02-21T01:25:28;27.40;;;14.48;;
79019;SDS011;72857;44.740;37.770;2024-02-21T01:26:30;28.77;;;14.55;;
79019;SDS011;72857;44.740;37.770;2024-02-21T01:27:31;28.77;;;14.65;;
79019;SDS011;72857;44.740;37.770;2024-02-21T01:28:33;27.10;;;15.30;;
79019;SDS011;72857;44.740;37.770;2024-02-21T01:29:35;30.40;;;17.15;;
79019;SDS011;72857;44.740;37.770;2024-02-21T01:30:36;27.08;;;15.80;;
79019;SDS011;72857;44.740;37.770;2024-02-21T01:31:37;24.38;;;15.02;;
79019;SDS011;72857;44.740;37.770;2024-02-21T01:32:39;26.23;;;14.18;;
79019;SDS011;72857;44.740;37.770;2024-02-21T01:33:41;24.50;;;14.30;;
79019;SDS011;72857;44.740;37.770;2024-02-21T01:34:43;27.48;;;13.82;;
79019;SDS011;72857;44.740;37.770;2024-02-21T01:35:45;30.88;;;14.38;;
79019;SDS011;72857;44.740;37.770;2024-02-21T01:36:46;25.60;;;14.20;;
79019;SDS011;72857;44.740;37.770;2024-02-21T01:37:47;24.50;;;14.98;;
79019;SDS011;72857;44.740;37.770;2024-02-21T01:38:49;28.88;;;15.25;;
79019;SDS011;72857;44.740;37.770;2024-02-21T01:39:51;25.67;;;14.00;;
79019;SDS011;72857;44.740;37.770;2024-02-21T01:40:52;26.63;;;14.85;;
79019;SDS011;72857;44.740;37.770;2024-02-21T01:41:54;25.33;;;14.80;;
79019;SDS011;72857;44.740;37.770;2024-02-21T01:42:55;31.70;;;15.82;;
79019;SDS011;72857;44.740;37.770;2024-02-21T01:43:57;26.83;;;14.15;;
79019;SDS011;72857;44.740;37.770;2024-02-21T01:44:59;25.80;;;13.85;;
79019;SDS011;72857;44.740;37.770;2024-02-21T01:46:00;27.63;;;14.02;;
79019;SDS011;72857;44.740;37.770;2024-02-21T01:47:02;29.15;;;15.25;;
79019;SDS011;72857;44.740;37.770;2024-02-21T01:48:04;26.75;;;14.25;;
79019;SDS011;72857;44.740;37.770;2024-02-21T01:49:06;29.88;;;15.88;;
79019;SDS011;72857;44.740;37.770;2024-02-21T01:50:07;29.17;;;16.33;;
79019;SDS011;72857;44.740;37.770;2024-02-21T01:51:09;36.72;;;17.02;;
79019;SDS011;72857;44.740;37.770;2024-02-21T01:52:11;29.10;;;14.98;;
79019;SDS011;72857;44.740;37.770;2024-02-21T01:53:16;30.27;;;15.27;;
79019;SDS011;72857;44.740;37.770;2024-02-21T01:54:19;26.75;;;15.02;;
79019;SDS011;72857;44.740;37.770;2024-02-21T01:55:21;32.47;;;15.68;;
79019;SDS011;72857;44.740;37.770;2024-02-21T01:56:22;26.38;;;15.32;;
79019;SDS011;72857;44.740;37.770;2024-02-21T01:57:24;27.80;;;15.90;;
79019;SDS011;72857;44.740;37.770;2024-02-21T01:58:26;30.42;;;16.27;;
79019;SDS011;72857;44.740;37.770;2024-02-21T01:59:30;30.42;;;15.10;;
79019;SDS011;72857;44.740;37.770;2024-02-21T02:00:32;28.35;;;14.18;;
79019;SDS011;72857;44.740;37.770;2024-02-21T02:01:34;27.33;;;16.13;;
79019;SDS011;72857;44.740;37.770;2024-02-21T02:02:36;28.98;;;16.25;;
79019;SDS011;72857;44.740;37.770;2024-02-21T02:03:39;32.10;;;15.02;;
79019;SDS011;72857;44.740;37.770;2024-02-21T02:04:40;29.10;;;15.50;;
79019;SDS011;72857;44.740;37.770;2024-02-21T02:05:45;31.70;;;14.40;;
79019;SDS011;72857;44.740;37.770;2024-02-21T02:06:48;27.27;;;14.70;;
79019;SDS011;72857;44.740;37.770;2024-02-21T02:07:49;32.08;;;14.85;;
79019;SDS011;72857;44.740;37.770;2024-02-21T02:08:51;32.20;;;15.68;;
79019;SDS011;72857;44.740;37.770;2024-02-21T02:09:53;28.20;;;15.70;;
79019;SDS011;72857;44.740;37.770;2024-02-21T02:10:55;31.25;;;15.65;;
79019;SDS011;72857;44.740;37.770;2024-02-21T02:11:56;27.00;;;15.45;;
79019;SDS011;72857;44.740;37.770;2024-02-21T02:12:59;33.78;;;16.30;;
79019;SDS011;72857;44.740;37.770;2024-02-21T02:14:01;33.45;;;16.60;;
79019;SDS011;72857;44.740;37.770;2024-02-21T02:15:02;32.17;;;16.45;;
79019;SDS011;72857;44.740;37.770;2024-02-21T02:16:07;33.28;;;17.20;;
79019;SDS011;72857;44.740;37.770;2024-02-21T02:17:08;28.45;;;15.52;;
79019;SDS011;72857;44.740;37.770;2024-02-21T02:18:11;30.15;;;15.57;;
79019;SDS011;72857;44.740;37.770;2024-02-21T02:19:13;35.90;;;16.52;;
79019;SDS011;72857;44.740;37.770;2024-02-21T02:20:16;36.60;;;15.95;;
79019;SDS011;72857;44.740;37.770;2024-02-21T02:21:38;33.88;;;17.05;;
79019;SDS011;72857;44.740;37.770;2024-02-21T02:22:42;28.35;;;15.55;;
79019;SDS011;72857;44.740;37.770;2024-02-21T02:23:45;33.03;;;16.63;;
79019;SDS011;72857;44.740;37.770;2024-02-21T02:24:46;33.08;;;16.40;;
79019;SDS011;72857;44.740;37.770;2024-02-21T02:25:48;32.15;;;17.25;;
79019;SDS011;72857;44.740;37.770;2024-02-21T02:26:52;30.42;;;16.15;;
79019;SDS011;72857;44.740;37.770;2024-02-21T02:27:53;29.48;;;15.65;;
79019;SDS011;72857;44.740;37.770;2024-02-21T02:28:55;32.83;;;15.55;;
79019;SDS011;72857;44.740;37.770;2024-02-21T02:29:56;31.83;;;16.05;;
79019;SDS011;72857;44.740;37.770;2024-02-21T02:30:58;35.10;;;16.60;;
79019;SDS011;72857;44.740;37.770;2024-02-21T02:31:59;29.88;;;16.10;;
79019;SDS011;72857;44.740;37.770;2024-02-21T02:33:04;28.75;;;16.50;;
79019;SDS011;72857;44.740;37.770;2024-02-21T02:34:06;30.48;;;16.85;;
79019;SDS011;72857;44.740;37.770;2024-02-21T02:35:07;33.10;;;16.73;;
79019;SDS011;72857;44.740;37.770;2024-02-21T02:36:09;29.92;;;15.50;;
79019;SDS011;72857;44.740;37.770;2024-02-21T02:37:11;34.40;;;15.88;;
79019;SDS011;72857;44.740;37.770;2024-02-21T02:38:12;32.03;;;16.13;;
79019;SDS011;72857;44.740;37.770;2024-02-21T02:39:14;27.73;;;15.23;;
79019;SDS011;72857;44.740;37.770;2024-02-21T02:40:16;30.48;;;15.20;;
79019;SDS011;72857;44.740;37.770;2024-02-21T02:41:18;30.30;;;14.88;;
79019;SDS011;72857;44.740;37.770;2024-02-21T02:42:19;32.65;;;15.43;;
79019;SDS011;72857;44.740;37.770;2024-02-21T02:43:21;29.67;;;14.93;;
79019;SDS011;72857;44.740;37.770;2024-02-21T02:44:22;43.65;;;16.88;;
79019;SDS011;72857;44.740;37.770;2024-02-21T02:45:24;34.78;;;16.17;;
79019;SDS011;72857;44.740;37.770;2024-02-21T02:46:27;31.33;;;16.48;;
79019;SDS011;72857;44.740;37.770;2024-02-21T02:47:28;32.10;;;16.65;;
79019;SDS011;72857;44.740;37.770;2024-02-21T02:48:30;29.63;;;15.07;;
79019;SDS011;72857;44.740;37.770;2024-02-21T02:49:31;34.70;;;15.82;;
79019;SDS011;72857;44.740;37.770;2024-02-21T02:50:33;32.30;;;15.15;;
79019;SDS011;72857;44.740;37.770;2024-02-21T02:51:34;30.60;;;15.85;;
79019;SDS011;72857;44.740;37.770;2024-02-21T02:52:35;30.38;;;16.30;;
79019;SDS011;72857;44.740;37.770;2024-02-21T02:53:37;30.27;;;17.27;;
79019;SDS011;72857;44.740;37.770;2024-02-21T02:54:38;34.45;;;16.50;;
79019;SDS011;72857;44.740;37.770;2024-02-21T02:55:40;31.70;;;17.05;;
79019;SDS011;72857;44.740;37.770;2024-02-21T02:56:41;32.13;;;16.17;;
79019;SDS011;72857;44.740;37.770;2024-02-21T02:57:43;31.02;;;16.48;;
79019;SDS011;72857;44.740;37.770;2024-02-21T02:58:44;31.65;;;15.98;;
79019;SDS011;72857;44.740;37.770;2024-02-21T02:59:49;29.77;;;16.38;;
79019;SDS011;72857;44.740;37.770;2024-02-21T03:00:51;30.17;;;16.50;;
79019;SDS011;72857;44.740;37.770;2024-02-21T03:01:52;31.58;;;16.02;;
79019;SDS011;72857;44.740;37.770;2024-02-21T03:02:54;32.25;;;17.80;;
79019;SDS011;72857;44.740;37.770;2024-02-21T03:03:55;33.13;;;16.05;;
79019;SDS011;72857;44.740;37.770;2024-02-21T03:04:57;32.88;;;16.55;;
79019;SDS011;72857;44.740;37.770;2024-02-21T03:05:58;29.98;;;16.65;;
79019;SDS011;72857;44.740;37.770;2024-02-21T03:07:00;32.75;;;18.25;;
79019;SDS011;72857;44.740;37.770;2024-02-21T03:08:01;45.65;;;22.85;;
79019;SDS011;72857;44.740;37.770;2024-02-21T03:09:07;47.70;;;17.98;;
79019;SDS011;72857;44.740;37.770;2024-02-21T03:10:13;35.95;;;17.08;;
79019;SDS011;72857;44.740;37.770;2024-02-21T03:12:18;26.83;;;14.40;;
79019;SDS011;72857;44.740;37.770;2024-02-21T03:13:25;30.77;;;15.73;;
79019;SDS011;72857;44.740;37.770;2024-02-21T03:14:27;41.70;;;17.65;;
79019;SDS011;72857;44.740;37.770;2024-02-21T03:15:28;30.40;;;16.45;;
79019;SDS011;72857;44.740;37.770;2024-02-21T03:16:30;33.35;;;17.15;;
79019;SDS011;72857;44.740;37.770;2024-02-21T03:17:32;28.38;;;15.15;;
79019;SDS011;72857;44.740;37.770;2024-02-21T03:18:36;29.60;;;16.25;;
79019;SDS011;72857;44.740;37.770;2024-02-21T03:19:38;32.90;;;16.77;;
79019;SDS011;72857;44.740;37.770;2024-02-21T03:20:39;40.58;;;18.85;;
79019;SDS011;72857;44.740;37.770;2024-02-21T03:21:41;29.02;;;16.48;;
79019;SDS011;72857;44.740;37.770;2024-02-21T03:22:43;36.50;;;17.65;;
79019;SDS011;72857;44.740;37.770;2024-02-21T03:23:44;31.75;;;17.25;;
79019;SDS011;72857;44.740;37.770;2024-02-21T03:24:46;30.60;;;17.20;;
79019;SDS011;72857;44.740;37.770;2024-02-21T03:25:47;34.55;;;17.42;;
79019;SDS011;72857;44.740;37.770;2024-02-21T03:26:49;52.35;;;24.15;;
79019;SDS011;72857;44.740;37.770;2024-02-21T03:27:51;34.75;;;19.63;;
79019;SDS011;72857;44.740;37.770;2024-02-21T03:28:53;39.05;;;19.38;;
79019;SDS011;72857;44.740;37.770;2024-02-21T03:29:54;32.47;;;17.60;;
79019;SDS011;72857;44.740;37.770;2024-02-21T03:30:55;32.22;;;16.58;;
79019;SDS011;72857;44.740;37.770;2024-02-21T03:31:57;32.75;;;15.65;;
79019;SDS011;72857;44.740;37.770;2024-02-21T03:32:58;35.72;;;15.68;;
79019;SDS011;72857;44.740;37.770;2024-02-21T03:34:00;38.42;;;18.15;;
79019;SDS011;72857;44.740;37.770;2024-02-21T03:35:02;38.08;;;17.70;;
79019;SDS011;72857;44.740;37.770;2024-02-21T03:36:03;32.38;;;16.88;;
79019;SDS011;72857;44.740;37.770;2024-02-21T03:37:05;52.70;;;21.63;;
79019;SDS011;72857;44.740;37.770;2024-02-21T03:38:07;36.20;;;18.95;;
79019;SDS011;72857;44.740;37.770;2024-02-21T03:39:08;38.38;;;18.58;;
79019;SDS011;72857;44.740;37.770;2024-02-21T03:40:10;35.90;;;18.63;;
79019;SDS011;72857;44.740;37.770;2024-02-21T03:41:12;32.83;;;17.50;;
79019;SDS011;72857;44.740;37.770;2024-02-21T03:42:13;37.60;;;18.30;;
79019;SDS011;72857;44.740;37.770;2024-02-21T03:43:15;39.40;;;18.38;;
79019;SDS011;72857;44.740;37.770;2024-02-21T03:44:16;39.17;;;19.27;;
79019;SDS011;72857;44.740;37.770;2024-02-21T03:45:17;35.85;;;18.63;;
79019;SDS011;72857;44.740;37.770;2024-02-21T03:46:19;36.28;;;18.55;;
79019;SDS011;72857;44.740;37.770;2024-02-21T03:47:21;33.95;;;18.02;;
79019;SDS011;72857;44.740;37.770;2024-02-21T03:48:24;39.33;;;18.95;;
79019;SDS011;72857;44.740;37.770;2024-02-21T03:49:26;35.10;;;18.23;;
79019;SDS011;72857;44.740;37.770;2024-02-21T03:50:27;33.40;;;17.60;;
79019;SDS011;72857;44.740;37.770;2024-02-21T03:51:29;34.72;;;17.55;;
79019;SDS011;72857;44.740;37.770;2024-02-21T03:52:31;31.42;;;17.27;;
79019;SDS011;72857;44.740;37.770;2024-02-21T03:53:32;30.95;;;16.38;;
79019;SDS011;72857;44.740;37.770;2024-02-21T03:54:34;34.30;;;17.33;;
79019;SDS011;72857;44.740;37.770;2024-02-21T03:55:35;30.70;;;17.05;;
79019;SDS011;72857;44.740;37.770;2024-02-21T03:56:37;31.10;;;15.77;;
79019;SDS011;72857;44.740;37.770;2024-02-21T03:57:40;34.25;;;16.67;;
79019;SDS011;72857;44.740;37.770;2024-02-21T03:58:42;29.58;;;16.02;;
79019;SDS011;72857;44.740;37.770;2024-02-21T03:59:43;41.72;;;19.80;;
79019;SDS011;72857;44.740;37.770;2024-02-21T04:00:45;39.10;;;20.15;;
79019;SDS011;72857;44.740;37.770;2024-02-21T04:01:46;34.03;;;16.70;;
79019;SDS011;72857;44.740;37.770;2024-02-21T04:02:48;32.30;;;16.48;;
79019;SDS011;72857;44.740;37.770;2024-02-21T04:03:49;26.27;;;15.75;;
79019;SDS011;72857;44.740;37.770;2024-02-21T04:04:50;30.30;;;14.32;;
79019;SDS011;72857;44.740;37.770;2024-02-21T04:05:52;32.40;;;16.15;;
79019;SDS011;72857;44.740;37.770;2024-02-21T04:06:53;29.50;;;13.65;;
79019;SDS011;72857;44.740;37.770;2024-02-21T04:07:55;29.05;;;14.60;;
79019;SDS011;72857;44.740;37.770;2024-02-21T04:08:56;36.00;;;17.65;;
79019;SDS011;72857;44.740;37.770;2024-02-21T04:09:58;31.05;;;17.05;;
79019;SDS011;72857;44.740;37.770;2024-02-21T04:10:59;28.05;;;13.90;;
79019;SDS011;72857;44.740;37.770;2024-02-21T04:12:01;34.42;;;14.27;;
79019;SDS011;72857;44.740;37.770;2024-02-21T04:13:03;29.30;;;14.95;;
79019;SDS011;72857;44.740;37.770;2024-02-21T04:14:07;27.50;;;14.38;;
79019;SDS011;72857;44.740;37.770;2024-02-21T04:15:08;29.45;;;15.13;;
79019;SDS011;72857;44.740;37.770;2024-02-21T04:16:10;36.55;;;17.77;;
79019;SDS011;72857;44.740;37.770;2024-02-21T04:17:12;35.85;;;16.85;;
79019;SDS011;72857;44.740;37.770;2024-02-21T04:18:13;41.25;;;16.63;;
79019;SDS011;72857;44.740;37.770;2024-02-21T04:19:15;32.50;;;16.40;;
79019;SDS011;72857;44.740;37.770;2024-02-21T04:20:17;38.08;;;18.08;;
79019;SDS011;72857;44.740;37.770;2024-02-21T04:21:19;32.80;;;16.92;;
79019;SDS011;72857;44.740;37.770;2024-02-21T04:22:20;35.67;;;17.65;;
79019;SDS011;72857;44.740;37.770;2024-02-21T04:23:22;40.88;;;19.17;;
79019;SDS011;72857;44.740;37.770;2024-02-21T04:24:23;35.97;;;18.08;;
79019;SDS011;72857;44.740;37.770;2024-02-21T04:25:25;35.45;;;18.63;;
79019;SDS011;72857;44.740;37.770;2024-02-21T04:26:27;36.25;;;17.40;;
79019;SDS011;72857;44.740;37.770;2024-02-21T04:27:28;42.28;;;19.08;;
79019;SDS011;72857;44.740;37.770;2024-02-21T04:28:30;39.67;;;19.80;;
79019;SDS011;72857;44.740;37.770;2024-02-21T04:29:31;43.55;;;19.17;;
79019;SDS011;72857;44.740;37.770;2024-02-21T04:30:34;36.83;;;16.45;;
79019;SDS011;72857;44.740;37.770;2024-02-21T04:31:35;30.38;;;15.88;;
79019;SDS011;72857;44.740;37.770;2024-02-21T04:32:37;31.95;;;17.85;;
79019;SDS011;72857;44.740;37.770;2024-02-21T04:33:38;23.80;;;12.88;;
79019;SDS011;72857;44.740;37.770;2024-02-21T04:34:40;26.20;;;14.52;;
79019;SDS011;72857;44.740;37.770;2024-02-21T04:35:43;26.05;;;13.88;;
79019;SDS011;72857;44.740;37.770;2024-02-21T04:36:44;24.75;;;13.82;;
79019;SDS011;72857;44.740;37.770;2024-02-21T04:37:46;32.00;;;15.90;;
79019;SDS011;72857;44.740;37.770;2024-02-21T04:38:48;26.73;;;13.75;;
79019;SDS011;72857;44.740;37.770;2024-02-21T04:39:50;25.90;;;14.48;;
79019;SDS011;72857;44.740;37.770;2024-02-21T04:40:51;29.92;;;18.10;;
79019;SDS011;72857;44.740;37.770;2024-02-21T04:41:53;33.58;;;16.48;;
79019;SDS011;72857;44.740;37.770;2024-02-21T04:42:54;34.92;;;17.08;;
79019;SDS011;72857;44.740;37.770;2024-02-21T04:43:56;33.15;;;16.10;;
79019;SDS011;72857;44.740;37.770;2024-02-21T04:44:57;32.67;;;15.27;;
79019;SDS011;72857;44.740;37.770;2024-02-21T04:45:59;35.00;;;14.77;;
79019;SDS011;72857;44.740;37.770;2024-02-21T04:47:01;24.40;;;13.32;;
79019;SDS011;72857;44.740;37.770;2024-02-21T04:48:04;31.75;;;15.90;;
79019;SDS011;72857;44.740;37.770;2024-02-21T04:49:06;33.83;;;16.40;;
79019;SDS011;72857;44.740;37.770;2024-02-21T04:50:07;31.33;;;15.45;;
79019;SDS011;72857;44.740;37.770;2024-02-21T04:51:09;33.10;;;17.25;;
79019;SDS011;72857;44.740;37.770;2024-02-21T04:52:10;27.48;;;14.15;;
79019;SDS011;72857;44.740;37.770;2024-02-21T04:53:12;24.80;;;12.23;;
79019;SDS011;72857;44.740;37.770;2024-02-21T04:54:16;19.67;;;11.15;;
79019;SDS011;72857;44.740;37.770;2024-02-21T04:55:18;21.90;;;12.55;;
79019;SDS011;72857;44.740;37.770;2024-02-21T04:56:19;30.90;;;13.57;;
79019;SDS011;72857;44.740;37.770;2024-02-21T04:57:21;24.70;;;12.82;;
79019;SDS011;72857;44.740;37.770;2024-02-21T04:58:22;32.25;;;13.75;;
79019;SDS011;72857;44.740;37.770;2024-02-21T04:59:24;28.23;;;14.27;;
79019;SDS011;72857;44.740;37.770;2024-02-21T05:00:25;32.53;;;14.52;;
79019;SDS011;72857;44.740;37.770;2024-02-21T05:01:27;23.98;;;13.88;;
79019;SDS011;72857;44.740;37.770;2024-02-21T05:02:29;31.50;;;15.93;;
79019;SDS011;72857;44.740;37.770;2024-02-21T05:03:31;34.97;;;17.67;;
79019;SDS011;72857;44.740;37.770;2024-02-21T05:04:32;36.50;;;16.15;;
79019;SDS011;72857;44.740;37.770;2024-02-21T05:05:34;38.67;;;16.45;;
79019;SDS011;72857;44.740;37.770;2024-02-21T05:06:39;33.47;;;15.35;;
79019;SDS011;72857;44.740;37.770;2024-02-21T05:07:42;40.75;;;16.63;;
79019;SDS011;72857;44.740;37.770;2024-02-21T05:08:44;33.20;;;17.63;;
79019;SDS011;72857;44.740;37.770;2024-02-21T05:09:45;34.63;;;16.58;;
79019;SDS011;72857;44.740;37.770;2024-02-21T05:10:47;35.25;;;16.70;;
79019;SDS011;72857;44.740;37.770;2024-02-21T05:11:48;35.20;;;15.68;;
79019;SDS011;72857;44.740;37.770;2024-02-21T05:12:50;40.00;;;19.13;;
79019;SDS011;72857;44.740;37.770;2024-02-21T05:13:51;37.95;;;17.23;;
79019;SDS011;72857;44.740;37.770;2024-02-21T05:14:52;35.83;;;16.48;;
79019;SDS011;72857;44.740;37.770;2024-02-21T05:15:54;37.70;;;16.35;;
79019;SDS011;72857;44.740;37.770;2024-02-21T05:16:55;32.15;;;16.13;;
79019;SDS011;72857;44.740;37.770;2024-02-21T05:17:57;33.83;;;16.30;;
79019;SDS011;72857;44.740;37.770;2024-02-21T05:18:59;31.23;;;15.55;;
79019;SDS011;72857;44.740;37.770;2024-02-21T05:20:00;29.27;;;15.13;;
79019;SDS011;72857;44.740;37.770;2024-02-21T05:21:02;30.45;;;16.27;;
79019;SDS011;72857;44.740;37.770;2024-02-21T05:22:03;28.42;;;14.13;;
79019;SDS011;72857;44.740;37.770;2024-02-21T05:23:05;29.42;;;13.73;;
79019;SDS011;72857;44.740;37.770;2024-02-21T05:24:07;28.88;;;13.27;;
79019;SDS011;72857;44.740;37.770;2024-02-21T05:25:09;29.50;;;13.30;;
79019;SDS011;72857;44.740;37.770;2024-02-21T05:26:10;24.52;;;12.77;;
79019;SDS011;72857;44.740;37.770;2024-02-21T05:27:12;28.58;;;14.15;;
79019;SDS011;72857;44.740;37.770;2024-02-21T05:28:13;28.02;;;15.05;;
79019;SDS011;72857;44.740;37.770;2024-02-21T05:29:15;27.40;;;14.95;;
79019;SDS011;72857;44.740;37.770;2024-02-21T05:30:16;27.25;;;14.30;;
79019;SDS011;72857;44.740;37.770;2024-02-21T05:31:18;24.80;;;14.20;;
79019;SDS011;72857;44.740;37.770;2024-02-21T05:32:20;24.83;;;12.50;;
79019;SDS011;72857;44.740;37.770;2024-02-21T05:33:21;24.65;;;13.90;;
79019;SDS011;72857;44.740;37.770;2024-02-21T05:34:25;20.73;;;10.90;;
79019;SDS011;72857;44.740;37.770;2024-02-21T05:35:27;21.40;;;11.27;;
79019;SDS011;72857;44.740;37.770;2024-02-21T05:36:29;28.70;;;13.05;;
79019;SDS011;72857;44.740;37.770;2024-02-21T05:37:31;24.33;;;12.38;;
79019;SDS011;72857;44.740;37.770;2024-02-21T05:38:32;25.10;;;12.52;;
79019;SDS011;72857;44.740;37.770;2024-02-21T05:39:33;27.55;;;12.68;;
79019;SDS011;72857;44.740;37.770;2024-02-21T05:40:35;21.13;;;12.27;;
79019;SDS011;72857;44.740;37.770;2024-02-21T05:41:36;21.77;;;12.52;;
79019;SDS011;72857;44.740;37.770;2024-02-21T05:42:38;24.20;;;12.98;;
79019;SDS011;72857;44.740;37.770;2024-02-21T05:43:40;21.00;;;11.07;;
79019;SDS011;72857;44.740;37.770;2024-02-21T05:44:41;21.67;;;11.77;;
79019;SDS011;72857;44.740;37.770;2024-02-21T05:45:43;24.13;;;12.93;;
79019;SDS011;72857;44.740;37.770;2024-02-21T05:46:44;19.00;;;11.52;;
79019;SDS011;72857;44.740;37.770;2024-02-21T05:47:46;18.05;;;10.73;;
79019;SDS011;72857;44.740;37.770;2024-02-21T05:48:47;20.60;;;11.65;;
79019;SDS011;72857;44.740;37.770;2024-02-21T05:49:49;20.30;;;10.85;;
79019;SDS011;72857;44.740;37.770;2024-02-21T05:50:54;19.98;;;11.68;;
79019;SDS011;72857;44.740;37.770;2024-02-21T05:51:55;21.83;;;11.75;;
79019;SDS011;72857;44.740;37.770;2024-02-21T05:52:57;25.00;;;12.82;;
79019;SDS011;72857;44.740;37.770;2024-02-21T05:53:59;19.70;;;10.70;;
79019;SDS011;72857;44.740;37.770;2024-02-21T05:55:01;23.27;;;10.88;;
79019;SDS011;72857;44.740;37.770;2024-02-21T05:56:02;24.23;;;11.25;;
79019;SDS011;72857;44.740;37.770;2024-02-21T05:57:05;24.48;;;11.18;;